Historyczne dane pomiarowe

Dodano dane terminowe – wersja testowa.

Dane z okresu 1951-2019

Wersja bazy: 1.34 [2019-03-16, lista zmian], aktualizacja planowana na 2019-04-15

Dane meteo z obszaru Polski uzyskane na podstawie danych udostępnionych przez Instytut Meteorologii i Gospodarki Wodnej – Państwowy Instytut Badawczy.

 

Wybierz Datę:    

       

TemperaturaWilgotnośćWiatrCiśnienieOpadyŚniegCzas trwania zjawisk
 Stacja t tx tn tng RH VA  wxwx mslp ppp RRR   cm mm wxwxwxwxwxwxwx
1961-08-14 14.8 20.6 7.5- 75.8- 3.3 1.0---- 0.0------------
1961-08-13 15.1 18.7 13.7- 79.5- 6.3 2.0---- 0.0------------
1961-08-12 18.1 21.9 15.1- 88.3- 6.3 0.7---- 5.0------------
1961-08-11 19.1 24.1 16.7- 92.5- 8.0 1.0---- 5.7------------
1961-08-10 19.5 25.2 13.8- 70.3- 5.3 2.3---- 8.1------------
1961-08-09 20.0 28.1 14.3- 77.8- 5.7 0.7---- 0.0------------
1961-08-08 17.8 23.6 11.6- 68.5- 3.0 1.0---- 0.0------------
1961-08-07 19.0 23.0 16.9- 87.5- 7.0 1.0---- 0.9------------
1961-08-06 21.9 30.0 13.4- 79.0- 3.7 1.7---- 2.6------------
1961-08-05 17.0 22.4 13.7- 77.0- 3.7 2.0---- 0.0------------
1961-08-04 15.5 20.3 9.1- 72.8- 5.0 2.0---- 0.3------------
1961-08-03 16.3 21.1 13.9- 87.0- 7.0 1.0---- 3.3------------
1961-08-02 18.8 25.0 9.6- 69.5- 2.3 2.0---- 0.0------------
1961-08-01 13.5 14.9 11.6- 92.8- 7.3 6.7---- 0.8------------
1961-07-31 14.9 18.3 12.6- 89.8- 8.0 2.7---- 3.8------------
1961-07-30 13.6 15.1 11.8- 93.0- 8.0 2.7---- 20.3------------
1961-07-29 14.8 20.3 13.1- 88.3- 7.7 0.3---- 0.6------------
1961-07-28 16.3 19.3 13.7- 90.3- 8.0 2.3---- 17.1------------
1961-07-27 19.1 24.0 15.1- 74.5- 7.7 2.0---- 1.6------------
1961-07-26 15.6 18.3 11.9- 82.8- 8.0 2.0---- 0.1------------
1961-07-25 14.7 19.2 9.2- 78.5- 7.0 2.3---- 0.0------------
1961-07-24 15.0 19.7 10.8- 79.3- 7.3 3.3---- 0.2------------
1961-07-23 14.9 16.9 12.5- 87.3- 8.0 1.7---- 0.1------------
1961-07-22 15.2 20.3 13.1- 89.5- 6.3 2.7---- 6.6------------
1961-07-21 15.6 19.6 9.4- 88.3- 5.0 2.0---- 5.3------------
1961-07-20 16.1 23.6 9.2- 81.5- 2.3 1.3---- 0.0------------
1961-07-19 15.9 22.5 9.8- 82.5- 3.0 0.3---- 5.4------------
1961-07-18 15.0 19.2 11.3- 83.3- 7.0 2.7---- 4.9------------
1961-07-17 15.9 24.1 9.0- 81.0- 6.7 2.3---- 0.9------------
1961-07-16 14.5 19.2 8.9- 90.3- 7.3 1.7---- 3.0------------
1961-07-15 16.5 22.3 9.3- 80.0- 4.7 0.3---- 0.1------------
1961-07-14 15.4 24.0 13.5- 70.5- 7.0 5.0---- 0.0------------
1961-07-13 22.7 29.5 11.9- 68.8- 6.0 3.0---- 0.0------------
1961-07-12 16.7 23.0 11.7- 87.5- 5.3 0.3---- 2.2------------
1961-07-11 15.6 21.2 9.4- 66.0- 4.7 3.0---- 2.4------------
1961-07-10 14.4 18.7 11.4- 76.0- 5.3 2.3---- 0.5------------
1961-07-09 16.9 23.8 8.8- 70.8-- 3.0---- 1.3------------
1961-07-08 15.4 20.9 9.9- 67.0- 4.7 0.7---- 0.0------------
1961-07-07 13.6 18.0 8.1- 77.8- 4.0 1.7---- 0.0------------
1961-07-06 12.6 17.9 7.0- 79.5- 4.7 2.0---- 0.0------------
1961-07-05 14.3 18.8 12.5- 64.0- 5.7 3.7---- 0.0------------
1961-07-04 19.4 24.3 16.8- 73.3- 6.7 2.0---- 0.5------------
1961-07-03 23.3 31.0 10.7- 56.0- 0.7 1.0---- 0.0------------
1961-07-02 21.3 30.1 10.3- 64.0- 0.0 0.7---- 0.0------------
1961-07-01 17.8 25.0 9.3- 75.5- 4.0 0.3---- 0.0------------
1961-06-30 18.4 25.9 9.5- 74.5- 0.0 1.7---- 0.0------------
1961-06-29 14.2 18.0 8.9- 83.8- 6.0 1.7---- 0.0------------
1961-06-28 14.8 21.1 12.5- 73.0- 5.0 4.7---- 6.9------------
1961-06-27 23.3 32.3 14.1- 70.3- 6.0 2.3---- 3.6------------
1961-06-26 21.5 28.5 14.5- 63.0- 1.3 2.0---- 0.0------------
1961-06-25 20.8 27.0 13.7- 63.3- 4.7 3.7---- 0.0------------
1961-06-24 17.3 21.5 12.1- 66.0- 6.7 3.0---- 0.0------------
1961-06-23 17.7 24.1 12.9- 67.0- 4.7 1.0---- 0.0------------
1961-06-22 15.7 22.0 8.4- 67.5- 4.7 1.0---- 19.5------------
1961-06-21 15.0 22.1 6.6- 72.3- 6.3 3.0---- 2.1------------
1961-06-20 14.1 19.6 9.1- 67.3- 1.3 2.7---- 0.0------------
1961-06-19 16.8 22.7 14.0- 65.8- 2.0 2.7---- 0.0------------
1961-06-18 19.7 25.0 14.7- 68.0- 5.0 2.0---- 0.2------------
1961-06-17 16.4 21.4 12.0- 75.3- 6.3 2.3---- 0.0------------
1961-06-16 13.4 16.4 11.7- 88.3- 7.3 3.7---- 0.3------------
370.7 ms

 

Źródłem pochodzenia danych jest Instytut Meteorologii i Gospodarki Wodnej – Państwowy Instytut Badawczy. Dane Instytutu Meteorologii i Gospodarki Wodnej – Państwowego Instytutu Badawczego zostały przetworzone.

Dane źródłowe można odnaleźć na stronie https://dane.imgw.pl